Arthur Brusco — WDC3449 — position and weather

sailwx.info

Track history (hours):
 
Tides and Currents Weather Stations Pressure Air Temp Water Temp Dewpoint Dewpoint Depression Visibility Wind Speed Wind Dir Waves Ship Positions

Arthur Brusco

Owner: Brusco Tug & Barge, Inc, Longview, WA. More information available from US FCC via Universal Licensing System and Coast Guard Vessel Documentation Center.

Last reported at 2018-Feb-18 20:30 UTC. Time now 2018-Feb-18 20:37 UTC.
Position N 37°49' W 122°19'.

Length 35 m; draft 3.2 m.

Type: Other ship. MMSI: 271040404.

Date/timePositionNaut miles runAvg speedWind from/ knotsBaromVisibWave heightAir tempDewpointWater temp
2018-Feb-18 20:30N 37°49' W 122°19'0 0.0
2018-Feb-18 20:01N 37°49' W 122°19'0 0.0
2018-Feb-18 19:27N 37°49' W 122°19'0 0.0
2018-Feb-18 19:01N 37°49' W 122°19'1 1.1
2018-Feb-18 18:30N 37°49' W 122°19'1 1.1
2018-Feb-18 18:00N 37°49' W 122°19'0 0.1
2018-Feb-18 17:30N 37°49' W 122°19'0 0.1
2018-Feb-18 17:01N 37°49' W 122°19'0 0.0
2018-Feb-18 16:30N 37°49' W 122°19'0 0.0
2018-Feb-18 16:01N 37°49' W 122°19'0 0.0
2018-Feb-18 15:30N 37°49' W 122°19'0 0.0
2018-Feb-18 15:00N 37°49' W 122°19'0 0.0
2018-Feb-18 14:30N 37°49' W 122°19'0 0.0
2018-Feb-18 14:00N 37°49' W 122°19'0 0.0
2018-Feb-18 13:30N 37°49' W 122°19'0 0.0
2018-Feb-18 13:00N 37°49' W 122°19'0 0.0
2018-Feb-18 12:31N 37°49' W 122°19'0 0.0
2018-Feb-18 12:01N 37°49' W 122°19'0 0.0
2018-Feb-18 11:31N 37°49' W 122°19'0 0.0
2018-Feb-18 11:01N 37°49' W 122°19'0 0.0
2018-Feb-18 10:31N 37°49' W 122°19'0 0.0
2018-Feb-18 10:00N 37°49' W 122°19'0 0.0
2018-Feb-18 09:30N 37°49' W 122°19'0 0.0
2018-Feb-18 09:00N 37°49' W 122°19'0 0.0
2018-Feb-18 08:31N 37°49' W 122°19'0 0.0
2018-Feb-18 08:01N 37°49' W 122°19'0 0.0
2018-Feb-18 07:30N 37°49' W 122°19'1 1.2
2018-Feb-18 07:00N 37°49' W 122°19'1 1.1
2018-Feb-18 06:31N 37°49' W 122°19'0 0.0
2018-Feb-18 06:00N 37°49' W 122°19'0 0.0
2018-Feb-18 05:30N 37°49' W 122°19'0 0.0
2018-Feb-18 05:01N 37°49' W 122°19'0 0.0
2018-Feb-18 04:30N 37°49' W 122°19'0 0.0
2018-Feb-18 04:01N 37°49' W 122°19'0 0.0
2018-Feb-18 03:31N 37°49' W 122°19'0 0.0
2018-Feb-18 03:00N 37°49' W 122°19'0 0.0
2018-Feb-18 02:30N 37°49' W 122°19'0 0.0
2018-Feb-18 02:00N 37°49' W 122°19'0 0.0
2018-Feb-18 01:30N 37°49' W 122°19'0 0.3
2018-Feb-18 01:01N 37°49' W 122°19'3 5.1
2018-Feb-18 00:30N 37°48' W 122°21'2 3.8
2018-Feb-18 00:00N 37°49' W 122°23'3 6.9
2018-Feb-17 23:30N 37°49' W 122°28'3 5.5
2018-Feb-17 23:01N 37°48' W 122°31'4 8.3
2018-Feb-17 22:30N 37°46' W 122°36'5 9.5
2018-Feb-17 22:00N 37°44' W 122°41'4 8.3
2018-Feb-17 21:30N 37°42' W 122°45'510.1
2018-Feb-17 21:01N 37°39' W 122°51'510.1
2018-Feb-17 20:30N 37°36' W 122°56'5 9.7
2018-Feb-17 20:01N 37°34' W 123°01'5 9.4
2018-Feb-17 19:31N 37°33' W 123°07'14 5.8
2018-Feb-17 17:03N 37°38' W 123°24'0 7.2
2018-Feb-17 17:00N 37°38' W 123°23'4 7.7
2018-Feb-17 16:29N 37°38' W 123°18'4 7.9
2018-Feb-17 15:59N 37°38' W 123°13'4 8.0
2018-Feb-17 15:30N 37°38' W 123°08'4 7.9
2018-Feb-17 14:59N 37°37' W 123°03'4 7.9
2018-Feb-17 14:31N 37°37' W 122°58'4 8.9
2018-Feb-17 14:00N 37°40' W 122°54'4 8.6
2018-Feb-17 13:30N 37°42' W 122°49'4 8.4
2018-Feb-17 13:00N 37°44' W 122°45'4 7.6
2018-Feb-17 12:31N 37°46' W 122°40'4 7.6
2018-Feb-17 12:00N 37°47' W 122°36'5 9.2
2018-Feb-17 11:31N 37°49' W 122°30'3 7.0
2018-Feb-17 11:01N 37°50' W 122°26'4 7.8
2018-Feb-17 10:31N 37°48' W 122°22'2 4.4
2018-Feb-17 10:00N 37°49' W 122°19'0 0.9
2018-Feb-17 09:31N 37°49' W 122°19'0 0.6
2018-Feb-17 09:01N 37°49' W 122°19'0 0.0
2018-Feb-17 08:31N 37°49' W 122°19'0 0.0
2018-Feb-17 08:00N 37°49' W 122°19'0 0.0
2018-Feb-17 07:30N 37°49' W 122°19'0 0.0
2018-Feb-17 07:00N 37°49' W 122°19'0 0.0
2018-Feb-17 06:30N 37°49' W 122°19'0 0.0
2018-Feb-17 06:00N 37°49' W 122°19'0 0.0
2018-Feb-17 05:30N 37°49' W 122°19'0 0.0
2018-Feb-17 05:00N 37°49' W 122°19'0 0.0
2018-Feb-17 04:30N 37°49' W 122°19'0 0.0
2018-Feb-17 04:00N 37°49' W 122°19'0 0.0
2018-Feb-17 03:30N 37°49' W 122°19'0 0.0
2018-Feb-17 03:00N 37°49' W 122°19'0 0.1
2018-Feb-17 02:31N 37°49' W 122°18'0 0.0
2018-Feb-17 02:00N 37°49' W 122°18'0 0.0
2018-Feb-17 01:30N 37°49' W 122°18'0 0.0
2018-Feb-17 01:01N 37°49' W 122°18'0 0.0
2018-Feb-17 00:31N 37°49' W 122°18'0 0.1
2018-Feb-17 00:01N 37°49' W 122°19'0 0.1
2018-Feb-16 23:30N 37°49' W 122°18'0 0.2
2018-Feb-16 23:01N 37°49' W 122°19'3 5.1
2018-Feb-16 22:31N 37°48' W 122°21'2 3.9
2018-Feb-16 22:00N 37°49' W 122°24'3 6.2
2018-Feb-16 21:31N 37°49' W 122°27'4 7.0
2018-Feb-16 21:01N 37°48' W 122°32'4 8.8
2018-Feb-16 20:30N 37°46' W 122°37'4 8.8
2018-Feb-16 20:00N 37°44' W 122°42'4 8.2
2018-Feb-16 19:30N 37°42' W 122°46'7 9.8
2018-Feb-16 18:50N 37°38' W 122°53'3 9.8
2018-Feb-16 18:31N 37°36' W 122°56'5 9.1
2018-Feb-16 18:01N 37°34' W 123°01'4 8.8
2018-Feb-16 17:30N 37°33' W 123°06'5 9.7
2018-Feb-16 16:58N 37°35' W 123°13'4 9.4
2018-Feb-16 16:30N 37°36' W 123°18'4 8.5
2018-Feb-16 16:00N 37°37' W 123°23'4 8.2
2018-Feb-16 15:30N 37°39' W 123°28'7 4.5
2018-Feb-16 13:59N 37°38' W 123°19'4 6.0
2018-Feb-16 13:20N 37°37' W 123°14'2 5.8
2018-Feb-16 12:59N 37°37' W 123°12'3 5.9
2018-Feb-16 12:30N 37°37' W 123°08'3 5.9
2018-Feb-16 12:01N 37°36' W 123°05'3 6.1
2018-Feb-16 11:30N 37°36' W 123°01'4 7.2
2018-Feb-16 11:01N 37°38' W 122°57'4 7.0
2018-Feb-16 10:31N 37°40' W 122°53'3 6.9
2018-Feb-16 10:00N 37°42' W 122°50'3 7.0
2018-Feb-16 09:30N 37°43' W 122°46'3 6.6
2018-Feb-16 09:00N 37°44' W 122°42'3 6.1
2018-Feb-16 08:29N 37°46' W 122°38'3 5.7
2018-Feb-16 08:00N 37°47' W 122°35'3 5.6
2018-Feb-16 07:31N 37°48' W 122°32'2 4.8
2018-Feb-16 07:00N 37°49' W 122°29'2 4.1
2018-Feb-16 06:31N 37°50' W 122°27'2 4.8
2018-Feb-16 06:00N 37°49' W 122°24'2 4.2
2018-Feb-16 05:31N 37°48' W 122°22'2 4.1
2018-Feb-16 05:01N 37°49' W 122°19'1 1.2
2018-Feb-16 04:31N 37°49' W 122°18'0 0.0
2018-Feb-16 04:01N 37°49' W 122°18'0 0.1
2018-Feb-16 03:30N 37°49' W 122°19'0 0.1
2018-Feb-16 03:01N 37°49' W 122°18'0 0.0
2018-Feb-16 02:31N 37°49' W 122°18'0 0.1
2018-Feb-16 02:01N 37°49' W 122°19'0 0.0
2018-Feb-16 01:31N 37°49' W 122°19'0 0.0
2018-Feb-16 01:01N 37°49' W 122°19'0 0.2
2018-Feb-16 00:31N 37°49' W 122°19'0 0.1
2018-Feb-16 00:00N 37°49' W 122°19'0 0.6
2018-Feb-15 23:30N 37°49' W 122°19'0 0.1
2018-Feb-15 23:00N 37°49' W 122°19'0 0.5
2018-Feb-15 22:31N 37°49' W 122°19'0 0.9
2018-Feb-15 22:00N 37°49' W 122°19'0 0.0
2018-Feb-15 21:30N 37°49' W 122°19'0 0.0
2018-Feb-15 21:01N 37°49' W 122°19'0 0.0
2018-Feb-15 20:30N 37°49' W 122°19'0 0.0
2018-Feb-15 20:01N 37°49' W 122°19'0 0.0
2018-Feb-15 19:31N 37°49' W 122°19'0 0.0
2018-Feb-15 19:01N 37°49' W 122°19'0 0.0
2018-Feb-15 18:29N 37°49' W 122°19'0 0.0
2018-Feb-15 18:01N 37°49' W 122°19'0 0.1
2018-Feb-15 17:31N 37°49' W 122°19'0 0.9
2018-Feb-15 17:01N 37°49' W 122°19'0 0.9
2018-Feb-15 16:31N 37°49' W 122°19'0 0.6
2018-Feb-15 16:00N 37°49' W 122°19'0 0.6
2018-Feb-15 15:31N 37°49' W 122°19'0 0.0
2018-Feb-15 15:01N 37°49' W 122°19'0 0.0
2018-Feb-15 14:30N 37°49' W 122°19'0 0.0
2018-Feb-15 14:01N 37°49' W 122°19'0 0.0
2018-Feb-15 13:31N 37°49' W 122°19'0 0.0
2018-Feb-15 13:01N 37°49' W 122°19'0 0.0
2018-Feb-15 12:30N 37°49' W 122°19'0 0.0
2018-Feb-15 12:00N 37°49' W 122°19'0 0.0
2018-Feb-15 11:31N 37°49' W 122°19'0 0.0
2018-Feb-15 11:00N 37°49' W 122°19'2 3.3
2018-Feb-15 10:30N 37°49' W 122°20'1 2.2
2018-Feb-15 10:01N 37°47' W 122°21'4 7.4
2018-Feb-15 09:31N 37°49' W 122°25'3 5.1
2018-Feb-15 09:00N 37°49' W 122°28'4 8.4
2018-Feb-15 08:31N 37°47' W 122°33'4 8.4
2018-Feb-15 08:00N 37°46' W 122°38'13 7.7
2018-Feb-15 06:16N 37°38' W 122°52'3 8.5
2018-Feb-15 05:53N 37°36' W 122°56'3 8.4
2018-Feb-15 05:31N 37°34' W 122°59'4 0.8
2018-Feb-14 23:54N 37°36' W 123°04'20 8.0
2018-Feb-14 21:23N 37°46' W 122°41'7 8.0
2018-Feb-14 20:30N 37°47' W 122°32'4 8.7
2018-Feb-14 20:00N 37°50' W 122°28'4 7.2
2018-Feb-14 19:31N 37°49' W 122°23'3 6.3
2018-Feb-14 19:01N 37°49' W 122°19'0 0.8
2018-Feb-14 18:30N 37°49' W 122°19'0 0.6
2018-Feb-14 18:01N 37°49' W 122°19'0 0.0
2018-Feb-14 17:30N 37°49' W 122°19'0 0.0
2018-Feb-14 17:01N 37°49' W 122°19'0 0.0
2018-Feb-14 16:30N 37°49' W 122°19'0 0.0
2018-Feb-14 16:01N 37°49' W 122°19'0 0.0
2018-Feb-14 15:30N 37°49' W 122°19'0 0.0
2018-Feb-14 15:01N 37°49' W 122°19'0 0.0
2018-Feb-14 14:31N 37°49' W 122°19'0 0.0
2018-Feb-14 14:01N 37°49' W 122°19'0 0.0
2018-Feb-14 13:30N 37°49' W 122°19'0 0.0
2018-Feb-14 13:00N 37°49' W 122°19'0 0.0
2018-Feb-14 12:31N 37°49' W 122°19'0 0.0
2018-Feb-14 12:00N 37°49' W 122°19'0 0.0
2018-Feb-14 11:31N 37°49' W 122°19'0 0.0
2018-Feb-14 11:00N 37°49' W 122°19'0 0.0
2018-Feb-14 10:31N 37°49' W 122°19'0 0.0
2018-Feb-14 10:01N 37°49' W 122°19'0 0.0
2018-Feb-14 09:31N 37°49' W 122°19'0 0.0
2018-Feb-14 09:01N 37°49' W 122°19'0 0.1
2018-Feb-14 08:31N 37°49' W 122°19'2 4.8
2018-Feb-14 08:01N 37°48' W 122°21'1 2.8
2018-Feb-14 07:31N 37°48' W 122°23'4 8.5
2018-Feb-14 07:00N 37°49' W 122°28'4 8.7
2018-Feb-14 06:30N 37°47' W 122°33'5 9.3
2018-Feb-14 06:00N 37°45' W 122°38'4 8.0
2018-Feb-14 05:30N 37°43' W 122°42'3 6.4
2018-Feb-14 05:00N 37°42' W 122°46'5 9.8
2018-Feb-14 04:30N 37°39' W 122°51'5 9.8
2018-Feb-14 04:01N 37°36' W 122°56'5 9.6
2018-Feb-14 03:30N 37°33' W 123°01'5 9.2
2018-Feb-14 03:00N 37°33' W 123°07'5 9.9
2018-Feb-14 02:29N 37°35' W 123°13'5 9.8
2018-Feb-14 01:56N 37°36' W 123°20'4 9.1
2018-Feb-14 01:29N 37°37' W 123°25'6 3.0
2018-Feb-13 23:32N 37°38' W 123°17'0 6.7
2018-Feb-13 23:29N 37°38' W 123°17'5 6.8
2018-Feb-13 22:42N 37°37' W 123°10'1 6.8
2018-Feb-13 22:31N 37°37' W 123°09'3 6.8
2018-Feb-13 22:00N 37°36' W 123°04'3 6.8
2018-Feb-13 21:30N 37°36' W 123°00'10 7.3
2018-Feb-13 20:09N 37°42' W 122°50'2 7.4
2018-Feb-13 19:55N 37°43' W 122°48'3 7.4
2018-Feb-13 19:30N 37°44' W 122°45'4 7.2
2018-Feb-13 19:00N 37°46' W 122°40'3 6.4
2018-Feb-13 18:30N 37°46' W 122°36'3 6.6
2018-Feb-13 18:00N 37°48' W 122°33'3 5.9
2018-Feb-13 17:30N 37°49' W 122°29'3 5.2
2018-Feb-13 17:01N 37°50' W 122°26'3 5.7
2018-Feb-13 16:30N 37°49' W 122°23'3 5.6
2018-Feb-13 16:01N 37°49' W 122°19'1 1.6
2018-Feb-13 15:30N 37°49' W 122°19'0 0.0
2018-Feb-13 15:01N 37°49' W 122°19'0 0.0
2018-Feb-13 14:31N 37°49' W 122°19'0 0.0
2018-Feb-13 14:00N 37°49' W 122°19'0 0.0
2018-Feb-13 13:30N 37°49' W 122°19'0 0.0
2018-Feb-13 13:01N 37°49' W 122°19'0 0.0
2018-Feb-13 12:30N 37°49' W 122°19'0 0.0
2018-Feb-13 12:00N 37°49' W 122°19'0 0.0
2018-Feb-13 11:31N 37°49' W 122°19'0 0.0
2018-Feb-13 11:01N 37°49' W 122°19'0 0.0
2018-Feb-13 10:31N 37°49' W 122°19'0 0.0
2018-Feb-13 10:01N 37°49' W 122°19'0 0.0
2018-Feb-13 09:30N 37°49' W 122°19'0 0.0
2018-Feb-13 09:01N 37°49' W 122°19'0 0.0
2018-Feb-13 08:31N 37°49' W 122°19'0 0.0
2018-Feb-13 08:00N 37°49' W 122°19'0 0.0
2018-Feb-13 07:31N 37°49' W 122°19'0 0.0
2018-Feb-13 07:00N 37°49' W 122°19'0 0.0
2018-Feb-13 06:30N 37°49' W 122°19'0 0.0
2018-Feb-13 06:01N 37°49' W 122°19'1 1.3
2018-Feb-13 05:31N 37°49' W 122°19'1 1.3
2018-Feb-13 05:01N 37°49' W 122°19'0 0.0
2018-Feb-13 04:31N 37°49' W 122°19'0 0.0
2018-Feb-13 04:00N 37°49' W 122°19'0 0.0
2018-Feb-13 03:31N 37°49' W 122°19'0 0.6
2018-Feb-13 03:01N 37°49' W 122°19'0 0.0
2018-Feb-13 02:31N 37°49' W 122°19'0 0.0
2018-Feb-13 02:01N 37°49' W 122°19'0 0.0
2018-Feb-13 01:31N 37°49' W 122°19'0 0.0
2018-Feb-13 01:01N 37°49' W 122°19'0 0.0
2018-Feb-13 00:30N 37°49' W 122°19'0 0.0
2018-Feb-13 00:01N 37°49' W 122°19'0 0.0
2018-Feb-12 23:30N 37°49' W 122°19'0 0.0
2018-Feb-12 23:01N 37°49' W 122°19'0 0.6
2018-Feb-12 22:30N 37°49' W 122°19'2 4.0
2018-Feb-12 22:00N 37°48' W 122°21'4 8.9
2018-Feb-12 21:31N 37°52' W 122°24'2 4.9
2018-Feb-12 21:01N 37°54' W 122°22'1 1.4
2018-Feb-12 20:30N 37°55' W 122°22'0 0.0
2018-Feb-12 20:01N 37°55' W 122°22'0 0.0
2018-Feb-12 19:30N 37°55' W 122°22'0 0.0
2018-Feb-12 19:00N 37°55' W 122°22'0 0.0
2018-Feb-12 18:30N 37°55' W 122°22'0 0.0
2018-Feb-12 18:01N 37°55' W 122°22'0 0.0
2018-Feb-12 17:30N 37°55' W 122°22'0 0.0
2018-Feb-12 17:01N 37°55' W 122°22'1 1.5
2018-Feb-12 16:31N 37°54' W 122°22'0 0.0
2018-Feb-12 16:00N 37°54' W 122°22'1 2.9
2018-Feb-12 15:30N 37°54' W 122°24'4 8.6
2018-Feb-12 15:00N 37°50' W 122°22'3 5.9
2018-Feb-12 14:30N 37°49' W 122°19'0 0.9
2018-Feb-12 14:00N 37°49' W 122°19'0 0.5
2018-Feb-12 13:31N 37°49' W 122°19'0 0.5
2018-Feb-12 13:01N 37°49' W 122°19'1 1.0
2018-Feb-12 12:30N 37°49' W 122°19'0 0.3
2018-Feb-12 12:01N 37°49' W 122°19'0 0.0
2018-Feb-12 11:30N 37°49' W 122°19'0 0.0
2018-Feb-12 11:00N 37°49' W 122°19'0 0.0
2018-Feb-12 10:30N 37°49' W 122°19'0 0.0
2018-Feb-12 10:00N 37°49' W 122°19'0 0.0
2018-Feb-12 09:30N 37°49' W 122°19'0 0.8
2018-Feb-12 09:01N 37°49' W 122°19'0 0.8
2018-Feb-12 08:30N 37°49' W 122°19'0 0.8
2018-Feb-12 08:00N 37°49' W 122°19'0 0.0
2018-Feb-12 07:31N 37°49' W 122°19'0 0.0
2018-Feb-12 07:00N 37°49' W 122°19'0 0.0
2018-Feb-12 06:31N 37°49' W 122°19'0 0.0
2018-Feb-12 06:00N 37°49' W 122°19'0 0.0
2018-Feb-12 05:30N 37°49' W 122°19'0 0.0
2018-Feb-12 05:01N 37°49' W 122°19'0 0.0
2018-Feb-12 04:30N 37°49' W 122°19'0 0.0
2018-Feb-12 04:01N 37°49' W 122°19'0 0.0
2018-Feb-12 03:31N 37°49' W 122°19'0 0.1
2018-Feb-12 03:00N 37°49' W 122°19'2 4.5
2018-Feb-12 02:30N 37°48' W 122°21'2 3.9
2018-Feb-12 02:01N 37°48' W 122°23'4 8.6
2018-Feb-12 01:30N 37°49' W 122°29'4 8.3
2018-Feb-12 01:01N 37°47' W 122°33'4 7.9
2018-Feb-12 00:30N 37°46' W 122°38'4 7.2
2018-Feb-12 00:00N 37°44' W 122°42'3 5.9
2018-Feb-11 23:31N 37°42' W 122°45'4 8.4
2018-Feb-11 23:00N 37°40' W 122°49'4 8.4
2018-Feb-11 22:31N 37°37' W 122°54'5 8.6
2018-Feb-11 21:55N 37°35' W 122°59'15 8.2
2018-Feb-11 20:07N 37°36' W 123°18'10 8.5
2018-Feb-11 19:00N 37°39' W 123°29'11 5.1
2018-Feb-11 16:44N 37°37' W 123°15'5 5.4
2018-Feb-11 15:51N 37°37' W 123°09'2 5.3
2018-Feb-11 15:31N 37°36' W 123°07'3 5.6
2018-Feb-11 15:00N 37°36' W 123°03'3 6.0
2018-Feb-11 14:30N 37°37' W 122°59'5 6.8
2018-Feb-11 13:49N 37°39' W 122°54'4 6.6
2018-Feb-11 13:17N 37°41' W 122°51'2 6.6
2018-Feb-11 13:00N 37°42' W 122°49'5 6.4
2018-Feb-11 12:15N 37°44' W 122°43'1 5.9
2018-Feb-11 12:00N 37°44' W 122°41'3 5.9
2018-Feb-11 11:25N 37°46' W 122°37'3 6.5
2018-Feb-11 10:54N 37°47' W 122°33'3 7.1
2018-Feb-11 10:31N 37°49' W 122°30'4 7.7
2018-Feb-11 10:00N 37°50' W 122°26'3 6.5
2018-Feb-11 09:30N 37°48' W 122°22'3 5.3
2018-Feb-11 09:00N 37°49' W 122°19'1 1.1
2018-Feb-11 08:31N 37°49' W 122°19'0 0.0
2018-Feb-11 08:01N 37°49' W 122°19'0 0.0
2018-Feb-11 07:31N 37°49' W 122°19'0 0.0
2018-Feb-11 07:00N 37°49' W 122°19'0 0.0
2018-Feb-11 06:30N 37°49' W 122°19'0 0.0
2018-Feb-11 06:01N 37°49' W 122°19'0 0.0
2018-Feb-11 05:31N 37°49' W 122°19'0 0.0
2018-Feb-11 05:00N 37°49' W 122°19'0 0.0
2018-Feb-11 04:30N 37°49' W 122°19'0 0.0
2018-Feb-11 04:01N 37°49' W 122°19'0 0.0
2018-Feb-11 03:30N 37°49' W 122°19'0 0.0
2018-Feb-11 03:00N 37°49' W 122°19'0 0.0
2018-Feb-11 02:31N 37°49' W 122°19'0 0.0
2018-Feb-11 02:01N 37°49' W 122°19'0 0.0
2018-Feb-11 01:30N 37°49' W 122°19'0 0.0
2018-Feb-11 01:00N 37°49' W 122°19'0 0.0
2018-Feb-11 00:30N 37°49' W 122°19'0 0.0
2018-Feb-11 00:01N 37°49' W 122°19'0 0.0
2018-Feb-10 23:30N 37°49' W 122°19'0 0.0
2018-Feb-10 23:01N 37°49' W 122°19'0 0.0
2018-Feb-10 22:30N 37°49' W 122°19'0 0.0
2018-Feb-10 22:01N 37°49' W 122°19'0 0.0
2018-Feb-10 21:30N 37°49' W 122°19'0 0.0
2018-Feb-10 21:00N 37°49' W 122°19'0 0.0
2018-Feb-10 20:30N 37°49' W 122°19'0 0.0
2018-Feb-10 20:00N 37°49' W 122°19'0 0.0
2018-Feb-10 19:30N 37°49' W 122°19'0 0.0
2018-Feb-10 19:00N 37°49' W 122°19'0 0.0
2018-Feb-10 18:30N 37°49' W 122°19'0 0.0
2018-Feb-10 18:01N 37°49' W 122°19'0 0.0
2018-Feb-10 17:30N 37°49' W 122°19'0 0.0
2018-Feb-10 17:00N 37°49' W 122°19'0 0.0
2018-Feb-10 16:30N 37°49' W 122°19'0 0.0
2018-Feb-10 16:00N 37°49' W 122°19'0 0.0
2018-Feb-10 15:30N 37°49' W 122°19'0 0.0
2018-Feb-10 15:01N 37°49' W 122°19'0 0.0
2018-Feb-10 14:31N 37°49' W 122°19'0 0.0
2018-Feb-10 14:01N 37°49' W 122°19'0 0.0
2018-Feb-10 13:31N 37°49' W 122°19'0 0.0
2018-Feb-10 13:00N 37°49' W 122°19'0 0.0
2018-Feb-10 12:30N 37°49' W 122°19'0 0.0
2018-Feb-10 12:01N 37°49' W 122°19'0 0.0
2018-Feb-10 11:30N 37°49' W 122°19'0 0.0
2018-Feb-10 11:01N 37°49' W 122°19'0 0.0
2018-Feb-10 10:30N 37°49' W 122°19'0 0.0
2018-Feb-10 10:00N 37°49' W 122°19'0 0.0
2018-Feb-10 09:30N 37°49' W 122°19'0 0.0
2018-Feb-10 09:00N 37°49' W 122°19'0 0.0
2018-Feb-10 08:30N 37°49' W 122°19'0 0.0
2018-Feb-10 08:00N 37°49' W 122°19'0 0.0
2018-Feb-10 07:30N 37°49' W 122°19'0 0.0
2018-Feb-10 07:00N 37°49' W 122°19'0 0.0
2018-Feb-10 06:30N 37°49' W 122°19'0 0.0
2018-Feb-10 06:01N 37°49' W 122°19'0 0.0
2018-Feb-10 05:31N 37°49' W 122°19'0 0.0
2018-Feb-10 05:00N 37°49' W 122°19'0 0.0
2018-Feb-10 04:31N 37°49' W 122°19'0 0.0
2018-Feb-10 04:01N 37°49' W 122°19'0 0.0
2018-Feb-10 03:31N 37°49' W 122°19'0 0.0
2018-Feb-10 03:00N 37°49' W 122°19'0 0.0
2018-Feb-10 02:30N 37°49' W 122°19'0 0.0
2018-Feb-10 01:59N 37°49' W 122°19'0 0.0
2018-Feb-10 01:31N 37°49' W 122°19'0 0.0
2018-Feb-10 01:00N 37°49' W 122°19'0 0.0
2018-Feb-10 00:30N 37°49' W 122°19'0 0.0
2018-Feb-09 23:59N 37°49' W 122°19'0 0.0
2018-Feb-09 23:30N 37°49' W 122°19'0 0.0
2018-Feb-09 23:00N 37°49' W 122°19'0 0.0
2018-Feb-09 22:46N 37°49' W 122°19'0 0.2
2018-Feb-09 21:30N 37°49' W 122°19'0 0.0
2018-Feb-09 20:31N 37°49' W 122°19'0 0.0
2018-Feb-09 20:01N 37°49' W 122°19'0 0.0
2018-Feb-09 19:30N 37°49' W 122°19'0 0.0
2018-Feb-09 19:00N 37°49' W 122°19'0 0.0
2018-Feb-09 18:01N 37°49' W 122°19'0 0.1
2018-Feb-09 15:31N 37°49' W 122°19'17 4.9
2018-Feb-09 12:00N 37°45' W 122°39'4 7.6
2018-Feb-09 11:30N 37°43' W 122°44'13 8.7
2018-Feb-09 10:01N 37°36' W 122°57'510.1
2018-Feb-09 09:31N 37°33' W 123°02'510.0
2018-Feb-09 09:01N 37°33' W 123°09'510.1
2018-Feb-09 08:30N 37°35' W 123°15'5 9.9
2018-Feb-09 08:00N 37°37' W 123°21'510.0
2018-Feb-09 07:31N 37°38' W 123°27'19 7.4
2018-Feb-09 05:01N 37°36' W 123°03'4 8.8
2018-Feb-09 04:30N 37°38' W 122°58'9 9.4
2018-Feb-09 03:31N 37°43' W 122°48'5 9.2
2018-Feb-09 03:01N 37°44' W 122°42'18 7.2
2018-Feb-09 00:30N 37°49' W 122°20'1 1.9
2018-Feb-09 00:00N 37°49' W 122°19'0 0.8
2018-Feb-08 23:31N 37°49' W 122°19'0 0.1
2018-Feb-08 22:30N 37°49' W 122°19'0 0.2
2018-Feb-08 20:30N 37°49' W 122°19'  
Track history (hours):
 
Tides and Currents Weather Stations Pressure Air Temp Water Temp Dewpoint Dewpoint Depression Visibility Wind Speed Wind Dir Waves Ship Positions

Arthur Brusco

Owner: Brusco Tug & Barge, Inc, Longview, WA. More information available from US FCC via Universal Licensing System and Coast Guard Vessel Documentation Center.

Last reported at 2018-Feb-18 20:30 UTC. Time now 2018-Feb-18 20:37 UTC.
Position N 37°49' W 122°19'.

Length 35 m; draft 3.2 m.

Type: Other ship. MMSI: 271040404.

Date/timePositionNaut miles runAvg speedWind from/ knotsBaromVisibWave heightAir tempDewpointWater temp
2018-Feb-18 20:30N 37°49' W 122°19'0 0.0
2018-Feb-18 20:01N 37°49' W 122°19'0 0.0
2018-Feb-18 19:27N 37°49' W 122°19'0 0.0
2018-Feb-18 19:01N 37°49' W 122°19'1 1.1
2018-Feb-18 18:30N 37°49' W 122°19'1 1.1
2018-Feb-18 18:00N 37°49' W 122°19'0 0.1
2018-Feb-18 17:30N 37°49' W 122°19'0 0.1
2018-Feb-18 17:01N 37°49' W 122°19'0 0.0
2018-Feb-18 16:30N 37°49' W 122°19'0 0.0
2018-Feb-18 16:01N 37°49' W 122°19'0 0.0
2018-Feb-18 15:30N 37°49' W 122°19'0 0.0
2018-Feb-18 15:00N 37°49' W 122°19'0 0.0
2018-Feb-18 14:30N 37°49' W 122°19'0 0.0
2018-Feb-18 14:00N 37°49' W 122°19'0 0.0
2018-Feb-18 13:30N 37°49' W 122°19'0 0.0
2018-Feb-18 13:00N 37°49' W 122°19'0 0.0
2018-Feb-18 12:31N 37°49' W 122°19'0 0.0
2018-Feb-18 12:01N 37°49' W 122°19'0 0.0
2018-Feb-18 11:31N 37°49' W 122°19'0 0.0
2018-Feb-18 11:01N 37°49' W 122°19'0 0.0
2018-Feb-18 10:31N 37°49' W 122°19'0 0.0
2018-Feb-18 10:00N 37°49' W 122°19'0 0.0
2018-Feb-18 09:30N 37°49' W 122°19'0 0.0
2018-Feb-18 09:00N 37°49' W 122°19'0 0.0
2018-Feb-18 08:31N 37°49' W 122°19'0 0.0
2018-Feb-18 08:01N 37°49' W 122°19'0 0.0
2018-Feb-18 07:30N 37°49' W 122°19'1 1.2
2018-Feb-18 07:00N 37°49' W 122°19'1 1.1
2018-Feb-18 06:31N 37°49' W 122°19'0 0.0
2018-Feb-18 06:00N 37°49' W 122°19'0 0.0
2018-Feb-18 05:30N 37°49' W 122°19'0 0.0
2018-Feb-18 05:01N 37°49' W 122°19'0 0.0
2018-Feb-18 04:30N 37°49' W 122°19'0 0.0
2018-Feb-18 04:01N 37°49' W 122°19'0 0.0
2018-Feb-18 03:31N 37°49' W 122°19'0 0.0
2018-Feb-18 03:00N 37°49' W 122°19'0 0.0
2018-Feb-18 02:30N 37°49' W 122°19'0 0.0
2018-Feb-18 02:00N 37°49' W 122°19'0 0.0
2018-Feb-18 01:30N 37°49' W 122°19'0 0.3
2018-Feb-18 01:01N 37°49' W 122°19'3 5.1
2018-Feb-18 00:30N 37°48' W 122°21'2 3.8
2018-Feb-18 00:00N 37°49' W 122°23'3 6.9
2018-Feb-17 23:30N 37°49' W 122°28'3 5.5
2018-Feb-17 23:01N 37°48' W 122°31'4 8.3
2018-Feb-17 22:30N 37°46' W 122°36'5 9.5
2018-Feb-17 22:00N 37°44' W 122°41'4 8.3
2018-Feb-17 21:30N 37°42' W 122°45'510.1
2018-Feb-17 21:01N 37°39' W 122°51'510.1
2018-Feb-17 20:30N 37°36' W 122°56'5 9.7
2018-Feb-17 20:01N 37°34' W 123°01'5 9.4
2018-Feb-17 19:31N 37°33' W 123°07'14 5.8
2018-Feb-17 17:03N 37°38' W 123°24'0 7.2
2018-Feb-17 17:00N 37°38' W 123°23'4 7.7
2018-Feb-17 16:29N 37°38' W 123°18'4 7.9
2018-Feb-17 15:59N 37°38' W 123°13'4 8.0
2018-Feb-17 15:30N 37°38' W 123°08'4 7.9
2018-Feb-17 14:59N 37°37' W 123°03'4 7.9
2018-Feb-17 14:31N 37°37' W 122°58'4 8.9
2018-Feb-17 14:00N 37°40' W 122°54'4 8.6
2018-Feb-17 13:30N 37°42' W 122°49'4 8.4
2018-Feb-17 13:00N 37°44' W 122°45'4 7.6
2018-Feb-17 12:31N 37°46' W 122°40'4 7.6
2018-Feb-17 12:00N 37°47' W 122°36'5 9.2
2018-Feb-17 11:31N 37°49' W 122°30'3 7.0
2018-Feb-17 11:01N 37°50' W 122°26'4 7.8
2018-Feb-17 10:31N 37°48' W 122°22'2 4.4
2018-Feb-17 10:00N 37°49' W 122°19'0 0.9
2018-Feb-17 09:31N 37°49' W 122°19'0 0.6
2018-Feb-17 09:01N 37°49' W 122°19'0 0.0
2018-Feb-17 08:31N 37°49' W 122°19'0 0.0
2018-Feb-17 08:00N 37°49' W 122°19'0 0.0
2018-Feb-17 07:30N 37°49' W 122°19'0 0.0
2018-Feb-17 07:00N 37°49' W 122°19'0 0.0
2018-Feb-17 06:30N 37°49' W 122°19'0 0.0
2018-Feb-17 06:00N 37°49' W 122°19'0 0.0
2018-Feb-17 05:30N 37°49' W 122°19'0 0.0
2018-Feb-17 05:00N 37°49' W 122°19'0 0.0
2018-Feb-17 04:30N 37°49' W 122°19'0 0.0
2018-Feb-17 04:00N 37°49' W 122°19'0 0.0
2018-Feb-17 03:30N 37°49' W 122°19'0 0.0
2018-Feb-17 03:00N 37°49' W 122°19'0 0.1
2018-Feb-17 02:31N 37°49' W 122°18'0 0.0
2018-Feb-17 02:00N 37°49' W 122°18'0 0.0
2018-Feb-17 01:30N 37°49' W 122°18'0 0.0
2018-Feb-17 01:01N 37°49' W 122°18'0 0.0
2018-Feb-17 00:31N 37°49' W 122°18'0 0.1
2018-Feb-17 00:01N 37°49' W 122°19'0 0.1
2018-Feb-16 23:30N 37°49' W 122°18'0 0.2
2018-Feb-16 23:01N 37°49' W 122°19'3 5.1
2018-Feb-16 22:31N 37°48' W 122°21'2 3.9
2018-Feb-16 22:00N 37°49' W 122°24'3 6.2
2018-Feb-16 21:31N 37°49' W 122°27'4 7.0
2018-Feb-16 21:01N 37°48' W 122°32'4 8.8
2018-Feb-16 20:30N 37°46' W 122°37'4 8.8
2018-Feb-16 20:00N 37°44' W 122°42'4 8.2
2018-Feb-16 19:30N 37°42' W 122°46'7 9.8
2018-Feb-16 18:50N 37°38' W 122°53'3 9.8
2018-Feb-16 18:31N 37°36' W 122°56'5 9.1
2018-Feb-16 18:01N 37°34' W 123°01'4 8.8
2018-Feb-16 17:30N 37°33' W 123°06'5 9.7
2018-Feb-16 16:58N 37°35' W 123°13'4 9.4
2018-Feb-16 16:30N 37°36' W 123°18'4 8.5
2018-Feb-16 16:00N 37°37' W 123°23'4 8.2
2018-Feb-16 15:30N 37°39' W 123°28'7 4.5
2018-Feb-16 13:59N 37°38' W 123°19'4 6.0
2018-Feb-16 13:20N 37°37' W 123°14'2 5.8
2018-Feb-16 12:59N 37°37' W 123°12'3 5.9
2018-Feb-16 12:30N 37°37' W 123°08'3 5.9
2018-Feb-16 12:01N 37°36' W 123°05'3 6.1
2018-Feb-16 11:30N 37°36' W 123°01'4 7.2
2018-Feb-16 11:01N 37°38' W 122°57'4 7.0
2018-Feb-16 10:31N 37°40' W 122°53'3 6.9
2018-Feb-16 10:00N 37°42' W 122°50'3 7.0
2018-Feb-16 09:30N 37°43' W 122°46'3 6.6
2018-Feb-16 09:00N 37°44' W 122°42'3 6.1
2018-Feb-16 08:29N 37°46' W 122°38'3 5.7
2018-Feb-16 08:00N 37°47' W 122°35'3 5.6
2018-Feb-16 07:31N 37°48' W 122°32'2 4.8
2018-Feb-16 07:00N 37°49' W 122°29'2 4.1
2018-Feb-16 06:31N 37°50' W 122°27'2 4.8
2018-Feb-16 06:00N 37°49' W 122°24'2 4.2
2018-Feb-16 05:31N 37°48' W 122°22'2 4.1
2018-Feb-16 05:01N 37°49' W 122°19'1 1.2
2018-Feb-16 04:31N 37°49' W 122°18'0 0.0
2018-Feb-16 04:01N 37°49' W 122°18'0 0.1
2018-Feb-16 03:30N 37°49' W 122°19'0 0.1
2018-Feb-16 03:01N 37°49' W 122°18'0 0.0
2018-Feb-16 02:31N 37°49' W 122°18'0 0.1
2018-Feb-16 02:01N 37°49' W 122°19'0 0.0
2018-Feb-16 01:31N 37°49' W 122°19'0 0.0
2018-Feb-16 01:01N 37°49' W 122°19'0 0.2
2018-Feb-16 00:31N 37°49' W 122°19'0 0.1
2018-Feb-16 00:00N 37°49' W 122°19'0 0.6
2018-Feb-15 23:30N 37°49' W 122°19'0 0.1
2018-Feb-15 23:00N 37°49' W 122°19'0 0.5
2018-Feb-15 22:31N 37°49' W 122°19'0 0.9
2018-Feb-15 22:00N 37°49' W 122°19'0 0.0
2018-Feb-15 21:30N 37°49' W 122°19'0 0.0
2018-Feb-15 21:01N 37°49' W 122°19'0 0.0
2018-Feb-15 20:30N 37°49' W 122°19'0 0.0
2018-Feb-15 20:01N 37°49' W 122°19'0 0.0
2018-Feb-15 19:31N 37°49' W 122°19'0 0.0
2018-Feb-15 19:01N 37°49' W 122°19'0 0.0
2018-Feb-15 18:29N 37°49' W 122°19'0 0.0
2018-Feb-15 18:01N 37°49' W 122°19'0 0.1
2018-Feb-15 17:31N 37°49' W 122°19'0 0.9
2018-Feb-15 17:01N 37°49' W 122°19'0 0.9
2018-Feb-15 16:31N 37°49' W 122°19'0 0.6
2018-Feb-15 16:00N 37°49' W 122°19'0 0.6
2018-Feb-15 15:31N 37°49' W 122°19'0 0.0
2018-Feb-15 15:01N 37°49' W 122°19'0 0.0
2018-Feb-15 14:30N 37°49' W 122°19'0 0.0
2018-Feb-15 14:01N 37°49' W 122°19'0 0.0
2018-Feb-15 13:31N 37°49' W 122°19'0 0.0
2018-Feb-15 13:01N 37°49' W 122°19'0 0.0
2018-Feb-15 12:30N 37°49' W 122°19'0 0.0
2018-Feb-15 12:00N 37°49' W 122°19'0 0.0
2018-Feb-15 11:31N 37°49' W 122°19'0 0.0
2018-Feb-15 11:00N 37°49' W 122°19'2 3.3
2018-Feb-15 10:30N 37°49' W 122°20'1 2.2
2018-Feb-15 10:01N 37°47' W 122°21'4 7.4
2018-Feb-15 09:31N 37°49' W 122°25'3 5.1
2018-Feb-15 09:00N 37°49' W 122°28'4 8.4
2018-Feb-15 08:31N 37°47' W 122°33'4 8.4
2018-Feb-15 08:00N 37°46' W 122°38'13 7.7
2018-Feb-15 06:16N 37°38' W 122°52'3 8.5
2018-Feb-15 05:53N 37°36' W 122°56'3 8.4
2018-Feb-15 05:31N 37°34' W 122°59'4 0.8
2018-Feb-14 23:54N 37°36' W 123°04'20 8.0
2018-Feb-14 21:23N 37°46' W 122°41'7 8.0
2018-Feb-14 20:30N 37°47' W 122°32'4 8.7
2018-Feb-14 20:00N 37°50' W 122°28'4 7.2
2018-Feb-14 19:31N 37°49' W 122°23'3 6.3
2018-Feb-14 19:01N 37°49' W 122°19'0 0.8
2018-Feb-14 18:30N 37°49' W 122°19'0 0.6
2018-Feb-14 18:01N 37°49' W 122°19'0 0.0
2018-Feb-14 17:30N 37°49' W 122°19'0 0.0
2018-Feb-14 17:01N 37°49' W 122°19'0 0.0
2018-Feb-14 16:30N 37°49' W 122°19'0 0.0
2018-Feb-14 16:01N 37°49' W 122°19'0 0.0
2018-Feb-14 15:30N 37°49' W 122°19'0 0.0
2018-Feb-14 15:01N 37°49' W 122°19'0 0.0
2018-Feb-14 14:31N 37°49' W 122°19'0 0.0
2018-Feb-14 14:01N 37°49' W 122°19'0 0.0
2018-Feb-14 13:30N 37°49' W 122°19'0 0.0
2018-Feb-14 13:00N 37°49' W 122°19'0 0.0
2018-Feb-14 12:31N 37°49' W 122°19'0 0.0
2018-Feb-14 12:00N 37°49' W 122°19'0 0.0
2018-Feb-14 11:31N 37°49' W 122°19'0 0.0
2018-Feb-14 11:00N 37°49' W 122°19'0 0.0
2018-Feb-14 10:31N 37°49' W 122°19'0 0.0
2018-Feb-14 10:01N 37°49' W 122°19'0 0.0
2018-Feb-14 09:31N 37°49' W 122°19'0 0.0
2018-Feb-14 09:01N 37°49' W 122°19'0 0.1
2018-Feb-14 08:31N 37°49' W 122°19'2 4.8
2018-Feb-14 08:01N 37°48' W 122°21'1 2.8
2018-Feb-14 07:31N 37°48' W 122°23'4 8.5
2018-Feb-14 07:00N 37°49' W 122°28'4 8.7
2018-Feb-14 06:30N 37°47' W 122°33'5 9.3
2018-Feb-14 06:00N 37°45' W 122°38'4 8.0
2018-Feb-14 05:30N 37°43' W 122°42'3 6.4
2018-Feb-14 05:00N 37°42' W 122°46'5 9.8
2018-Feb-14 04:30N 37°39' W 122°51'5 9.8
2018-Feb-14 04:01N 37°36' W 122°56'5 9.6
2018-Feb-14 03:30N 37°33' W 123°01'5 9.2
2018-Feb-14 03:00N 37°33' W 123°07'5 9.9
2018-Feb-14 02:29N 37°35' W 123°13'5 9.8
2018-Feb-14 01:56N 37°36' W 123°20'4 9.1
2018-Feb-14 01:29N 37°37' W 123°25'6 3.0
2018-Feb-13 23:32N 37°38' W 123°17'0 6.7
2018-Feb-13 23:29N 37°38' W 123°17'5 6.8
2018-Feb-13 22:42N 37°37' W 123°10'1 6.8
2018-Feb-13 22:31N 37°37' W 123°09'3 6.8
2018-Feb-13 22:00N 37°36' W 123°04'3 6.8
2018-Feb-13 21:30N 37°36' W 123°00'10 7.3
2018-Feb-13 20:09N 37°42' W 122°50'2 7.4
2018-Feb-13 19:55N 37°43' W 122°48'3 7.4
2018-Feb-13 19:30N 37°44' W 122°45'4 7.2
2018-Feb-13 19:00N 37°46' W 122°40'3 6.4
2018-Feb-13 18:30N 37°46' W 122°36'3 6.6
2018-Feb-13 18:00N 37°48' W 122°33'3 5.9
2018-Feb-13 17:30N 37°49' W 122°29'3 5.2
2018-Feb-13 17:01N 37°50' W 122°26'3 5.7
2018-Feb-13 16:30N 37°49' W 122°23'3 5.6
2018-Feb-13 16:01N 37°49' W 122°19'1 1.6
2018-Feb-13 15:30N 37°49' W 122°19'0 0.0
2018-Feb-13 15:01N 37°49' W 122°19'0 0.0
2018-Feb-13 14:31N 37°49' W 122°19'0 0.0
2018-Feb-13 14:00N 37°49' W 122°19'0 0.0
2018-Feb-13 13:30N 37°49' W 122°19'0 0.0
2018-Feb-13 13:01N 37°49' W 122°19'0 0.0
2018-Feb-13 12:30N 37°49' W 122°19'0 0.0
2018-Feb-13 12:00N 37°49' W 122°19'0 0.0
2018-Feb-13 11:31N 37°49' W 122°19'0 0.0
2018-Feb-13 11:01N 37°49' W 122°19'0 0.0
2018-Feb-13 10:31N 37°49' W 122°19'0 0.0
2018-Feb-13 10:01N 37°49' W 122°19'0 0.0
2018-Feb-13 09:30N 37°49' W 122°19'0 0.0
2018-Feb-13 09:01N 37°49' W 122°19'0 0.0
2018-Feb-13 08:31N 37°49' W 122°19'0 0.0
2018-Feb-13 08:00N 37°49' W 122°19'0 0.0
2018-Feb-13 07:31N 37°49' W 122°19'0 0.0
2018-Feb-13 07:00N 37°49' W 122°19'0 0.0
2018-Feb-13 06:30N 37°49' W 122°19'0 0.0
2018-Feb-13 06:01N 37°49' W 122°19'1 1.3
2018-Feb-13 05:31N 37°49' W 122°19'1 1.3
2018-Feb-13 05:01N 37°49' W 122°19'0 0.0
2018-Feb-13 04:31N 37°49' W 122°19'0 0.0
2018-Feb-13 04:00N 37°49' W 122°19'0 0.0
2018-Feb-13 03:31N 37°49' W 122°19'0 0.6
2018-Feb-13 03:01N 37°49' W 122°19'0 0.0
2018-Feb-13 02:31N 37°49' W 122°19'0 0.0
2018-Feb-13 02:01N 37°49' W 122°19'0 0.0
2018-Feb-13 01:31N 37°49' W 122°19'0 0.0
2018-Feb-13 01:01N 37°49' W 122°19'0 0.0
2018-Feb-13 00:30N 37°49' W 122°19'0 0.0
2018-Feb-13 00:01N 37°49' W 122°19'0 0.0
2018-Feb-12 23:30N 37°49' W 122°19'0 0.0
2018-Feb-12 23:01N 37°49' W 122°19'0 0.6
2018-Feb-12 22:30N 37°49' W 122°19'2 4.0
2018-Feb-12 22:00N 37°48' W 122°21'4 8.9
2018-Feb-12 21:31N 37°52' W 122°24'2 4.9
2018-Feb-12 21:01N 37°54' W 122°22'1 1.4
2018-Feb-12 20:30N 37°55' W 122°22'0 0.0
2018-Feb-12 20:01N 37°55' W 122°22'0 0.0
2018-Feb-12 19:30N 37°55' W 122°22'0 0.0
2018-Feb-12 19:00N 37°55' W 122°22'0 0.0
2018-Feb-12 18:30N 37°55' W 122°22'0 0.0
2018-Feb-12 18:01N 37°55' W 122°22'0 0.0
2018-Feb-12 17:30N 37°55' W 122°22'0 0.0
2018-Feb-12 17:01N 37°55' W 122°22'1 1.5
2018-Feb-12 16:31N 37°54' W 122°22'0 0.0
2018-Feb-12 16:00N 37°54' W 122°22'1 2.9
2018-Feb-12 15:30N 37°54' W 122°24'4 8.6
2018-Feb-12 15:00N 37°50' W 122°22'3 5.9
2018-Feb-12 14:30N 37°49' W 122°19'0 0.9
2018-Feb-12 14:00N 37°49' W 122°19'0 0.5
2018-Feb-12 13:31N 37°49' W 122°19'0 0.5
2018-Feb-12 13:01N 37°49' W 122°19'1 1.0
2018-Feb-12 12:30N 37°49' W 122°19'0 0.3
2018-Feb-12 12:01N 37°49' W 122°19'0 0.0
2018-Feb-12 11:30N 37°49' W 122°19'0 0.0
2018-Feb-12 11:00N 37°49' W 122°19'0 0.0
2018-Feb-12 10:30N 37°49' W 122°19'0 0.0
2018-Feb-12 10:00N 37°49' W 122°19'0 0.0
2018-Feb-12 09:30N 37°49' W 122°19'0 0.8
2018-Feb-12 09:01N 37°49' W 122°19'0 0.8
2018-Feb-12 08:30N 37°49' W 122°19'0 0.8
2018-Feb-12 08:00N 37°49' W 122°19'0 0.0
2018-Feb-12 07:31N 37°49' W 122°19'0 0.0
2018-Feb-12 07:00N 37°49' W 122°19'0 0.0
2018-Feb-12 06:31N 37°49' W 122°19'0 0.0
2018-Feb-12 06:00N 37°49' W 122°19'0 0.0
2018-Feb-12 05:30N 37°49' W 122°19'0 0.0
2018-Feb-12 05:01N 37°49' W 122°19'0 0.0
2018-Feb-12 04:30N 37°49' W 122°19'0 0.0
2018-Feb-12 04:01N 37°49' W 122°19'0 0.0
2018-Feb-12 03:31N 37°49' W 122°19'0 0.1
2018-Feb-12 03:00N 37°49' W 122°19'2 4.5
2018-Feb-12 02:30N 37°48' W 122°21'2 3.9
2018-Feb-12 02:01N 37°48' W 122°23'4 8.6
2018-Feb-12 01:30N 37°49' W 122°29'4 8.3
2018-Feb-12 01:01N 37°47' W 122°33'4 7.9
2018-Feb-12 00:30N 37°46' W 122°38'4 7.2
2018-Feb-12 00:00N 37°44' W 122°42'3 5.9
2018-Feb-11 23:31N 37°42' W 122°45'4 8.4
2018-Feb-11 23:00N 37°40' W 122°49'4 8.4
2018-Feb-11 22:31N 37°37' W 122°54'5 8.6
2018-Feb-11 21:55N 37°35' W 122°59'15 8.2
2018-Feb-11 20:07N 37°36' W 123°18'10 8.5
2018-Feb-11 19:00N 37°39' W 123°29'11 5.1
2018-Feb-11 16:44N 37°37' W 123°15'5 5.4
2018-Feb-11 15:51N 37°37' W 123°09'2 5.3
2018-Feb-11 15:31N 37°36' W 123°07'3 5.6
2018-Feb-11 15:00N 37°36' W 123°03'3 6.0
2018-Feb-11 14:30N 37°37' W 122°59'5 6.8
2018-Feb-11 13:49N 37°39' W 122°54'4 6.6
2018-Feb-11 13:17N 37°41' W 122°51'2 6.6
2018-Feb-11 13:00N 37°42' W 122°49'5 6.4
2018-Feb-11 12:15N 37°44' W 122°43'1 5.9
2018-Feb-11 12:00N 37°44' W 122°41'3 5.9
2018-Feb-11 11:25N 37°46' W 122°37'3 6.5
2018-Feb-11 10:54N 37°47' W 122°33'3 7.1
2018-Feb-11 10:31N 37°49' W 122°30'4 7.7
2018-Feb-11 10:00N 37°50' W 122°26'3 6.5
2018-Feb-11 09:30N 37°48' W 122°22'3 5.3
2018-Feb-11 09:00N 37°49' W 122°19'1 1.1
2018-Feb-11 08:31N 37°49' W 122°19'0 0.0
2018-Feb-11 08:01N 37°49' W 122°19'0 0.0
2018-Feb-11 07:31N 37°49' W 122°19'0 0.0
2018-Feb-11 07:00N 37°49' W 122°19'0 0.0
2018-Feb-11 06:30N 37°49' W 122°19'0 0.0
2018-Feb-11 06:01N 37°49' W 122°19'0 0.0
2018-Feb-11 05:31N 37°49' W 122°19'0 0.0
2018-Feb-11 05:00N 37°49' W 122°19'0 0.0
2018-Feb-11 04:30N 37°49' W 122°19'0 0.0
2018-Feb-11 04:01N 37°49' W 122°19'0 0.0
2018-Feb-11 03:30N 37°49' W 122°19'0 0.0
2018-Feb-11 03:00N 37°49' W 122°19'0 0.0
2018-Feb-11 02:31N 37°49' W 122°19'0 0.0
2018-Feb-11 02:01N 37°49' W 122°19'0 0.0
2018-Feb-11 01:30N 37°49' W 122°19'0 0.0
2018-Feb-11 01:00N 37°49' W 122°19'0 0.0
2018-Feb-11 00:30N 37°49' W 122°19'0 0.0
2018-Feb-11 00:01N 37°49' W 122°19'0 0.0
2018-Feb-10 23:30N 37°49' W 122°19'0 0.0
2018-Feb-10 23:01N 37°49' W 122°19'0 0.0
2018-Feb-10 22:30N 37°49' W 122°19'0 0.0
2018-Feb-10 22:01N 37°49' W 122°19'0 0.0
2018-Feb-10 21:30N 37°49' W 122°19'0 0.0
2018-Feb-10 21:00N 37°49' W 122°19'0 0.0
2018-Feb-10 20:30N 37°49' W 122°19'0 0.0
2018-Feb-10 20:00N 37°49' W 122°19'0 0.0
2018-Feb-10 19:30N 37°49' W 122°19'0 0.0
2018-Feb-10 19:00N 37°49' W 122°19'0 0.0
2018-Feb-10 18:30N 37°49' W 122°19'0 0.0
2018-Feb-10 18:01N 37°49' W 122°19'0 0.0
2018-Feb-10 17:30N 37°49' W 122°19'0 0.0
2018-Feb-10 17:00N 37°49' W 122°19'0 0.0
2018-Feb-10 16:30N 37°49' W 122°19'0 0.0
2018-Feb-10 16:00N 37°49' W 122°19'0 0.0
2018-Feb-10 15:30N 37°49' W 122°19'0 0.0
2018-Feb-10 15:01N 37°49' W 122°19'0 0.0
2018-Feb-10 14:31N 37°49' W 122°19'0 0.0
2018-Feb-10 14:01N 37°49' W 122°19'0 0.0
2018-Feb-10 13:31N 37°49' W 122°19'0 0.0
2018-Feb-10 13:00N 37°49' W 122°19'0 0.0
2018-Feb-10 12:30N 37°49' W 122°19'0 0.0
2018-Feb-10 12:01N 37°49' W 122°19'0 0.0
2018-Feb-10 11:30N 37°49' W 122°19'0 0.0
2018-Feb-10 11:01N 37°49' W 122°19'0 0.0
2018-Feb-10 10:30N 37°49' W 122°19'0 0.0
2018-Feb-10 10:00N 37°49' W 122°19'0 0.0
2018-Feb-10 09:30N 37°49' W 122°19'0 0.0
2018-Feb-10 09:00N 37°49' W 122°19'0 0.0
2018-Feb-10 08:30N 37°49' W 122°19'0 0.0
2018-Feb-10 08:00N 37°49' W 122°19'0 0.0
2018-Feb-10 07:30N 37°49' W 122°19'0 0.0
2018-Feb-10 07:00N 37°49' W 122°19'0 0.0
2018-Feb-10 06:30N 37°49' W 122°19'0 0.0
2018-Feb-10 06:01N 37°49' W 122°19'0 0.0
2018-Feb-10 05:31N 37°49' W 122°19'0 0.0
2018-Feb-10 05:00N 37°49' W 122°19'0 0.0
2018-Feb-10 04:31N 37°49' W 122°19'0 0.0
2018-Feb-10 04:01N 37°49' W 122°19'0 0.0
2018-Feb-10 03:31N 37°49' W 122°19'0 0.0
2018-Feb-10 03:00N 37°49' W 122°19'0 0.0
2018-Feb-10 02:30N 37°49' W 122°19'0 0.0
2018-Feb-10 01:59N 37°49' W 122°19'0 0.0
2018-Feb-10 01:31N 37°49' W 122°19'0 0.0
2018-Feb-10 01:00N 37°49' W 122°19'0 0.0
2018-Feb-10 00:30N 37°49' W 122°19'0 0.0
2018-Feb-09 23:59N 37°49' W 122°19'0 0.0
2018-Feb-09 23:30N 37°49' W 122°19'0 0.0
2018-Feb-09 23:00N 37°49' W 122°19'0 0.0
2018-Feb-09 22:46N 37°49' W 122°19'0 0.2
2018-Feb-09 21:30N 37°49' W 122°19'0 0.0
2018-Feb-09 20:31N 37°49' W 122°19'0 0.0
2018-Feb-09 20:01N 37°49' W 122°19'0 0.0
2018-Feb-09 19:30N 37°49' W 122°19'0 0.0
2018-Feb-09 19:00N 37°49' W 122°19'0 0.0
2018-Feb-09 18:01N 37°49' W 122°19'0 0.1
2018-Feb-09 15:31N 37°49' W 122°19'17 4.9
2018-Feb-09 12:00N 37°45' W 122°39'4 7.6
2018-Feb-09 11:30N 37°43' W 122°44'13 8.7
2018-Feb-09 10:01N 37°36' W 122°57'510.1
2018-Feb-09 09:31N 37°33' W 123°02'510.0
2018-Feb-09 09:01N 37°33' W 123°09'510.1
2018-Feb-09 08:30N 37°35' W 123°15'5 9.9
2018-Feb-09 08:00N 37°37' W 123°21'510.0
2018-Feb-09 07:31N 37°38' W 123°27'19 7.4
2018-Feb-09 05:01N 37°36' W 123°03'4 8.8
2018-Feb-09 04:30N 37°38' W 122°58'9 9.4
2018-Feb-09 03:31N 37°43' W 122°48'5 9.2
2018-Feb-09 03:01N 37°44' W 122°42'18 7.2
2018-Feb-09 00:30N 37°49' W 122°20'1 1.9
2018-Feb-09 00:00N 37°49' W 122°19'0 0.8
2018-Feb-08 23:31N 37°49' W 122°19'0 0.1
2018-Feb-08 22:30N 37°49' W 122°19'0 0.2
2018-Feb-08 20:30N 37°49' W 122°19'  

Dump ship's entire track history